sensor_id;sensor_type;location;lat;lon;timestamp;temperature;humidity
6756;DHT22;3415;51.148;7.014;2022-08-20T06:56:16;18.90;1.00
6756;DHT22;3415;51.148;7.014;2022-08-20T06:58:43;18.90;1.00
6756;DHT22;3415;51.148;7.014;2022-08-20T07:01:11;18.80;1.00
6756;DHT22;3415;51.148;7.014;2022-08-20T07:03:38;18.70;1.00
6756;DHT22;3415;51.148;7.014;2022-08-20T07:06:05;18.60;1.00
6756;DHT22;3415;51.148;7.014;2022-08-20T07:08:32;18.70;1.00
6756;DHT22;3415;51.148;7.014;2022-08-20T07:11:00;18.70;1.00
6756;DHT22;3415;51.148;7.014;2022-08-20T07:13:29;18.70;1.00
6756;DHT22;3415;51.148;7.014;2022-08-20T07:18:23;18.70;1.00
6756;DHT22;3415;51.148;7.014;2022-08-20T07:23:19;18.70;1.00
6756;DHT22;3415;51.148;7.014;2022-08-20T07:28:16;18.60;1.00
6756;DHT22;3415;51.148;7.014;2022-08-20T07:30:45;18.50;1.00
6756;DHT22;3415;51.148;7.014;2022-08-20T07:33:30;18.50;1.00
6756;DHT22;3415;51.148;7.014;2022-08-20T07:35:58;18.50;1.00
6756;DHT22;3415;51.148;7.014;2022-08-20T07:38:27;18.50;1.00
6756;DHT22;3415;51.148;7.014;2022-08-20T07:40:57;18.50;1.00
6756;DHT22;3415;51.148;7.014;2022-08-20T07:48:23;18.70;1.00
6756;DHT22;3415;51.148;7.014;2022-08-20T07:50:51;18.70;1.00
6756;DHT22;3415;51.148;7.014;2022-08-20T07:53:18;18.80;1.00
6756;DHT22;3415;51.148;7.014;2022-08-20T07:55:44;18.80;1.00
6756;DHT22;3415;51.148;7.014;2022-08-20T07:58:13;18.90;1.00
6756;DHT22;3415;51.148;7.014;2022-08-20T08:00:40;19.10;1.00
6756;DHT22;3415;51.148;7.014;2022-08-20T08:03:09;19.10;1.00
6756;DHT22;3415;51.148;7.014;2022-08-20T08:05:38;19.20;1.00
6756;DHT22;3415;51.148;7.014;2022-08-20T08:08:08;19.20;99.90
6756;DHT22;3415;51.148;7.014;2022-08-20T08:10:37;19.20;99.90
6756;DHT22;3415;51.148;7.014;2022-08-20T08:13:07;19.30;99.90
6756;DHT22;3415;51.148;7.014;2022-08-20T08:15:39;19.40;99.90
6756;DHT22;3415;51.148;7.014;2022-08-20T08:18:12;19.50;99.90
6756;DHT22;3415;51.148;7.014;2022-08-20T08:20:42;19.50;99.90
6756;DHT22;3415;51.148;7.014;2022-08-20T08:23:10;19.20;99.90
6756;DHT22;3415;51.148;7.014;2022-08-20T08:25:37;19.20;99.90
6756;DHT22;3415;51.148;7.014;2022-08-20T08:28:06;19.20;99.90
6756;DHT22;3415;51.148;7.014;2022-08-20T08:30:35;19.00;99.90
6756;DHT22;3415;51.148;7.014;2022-08-20T08:33:02;18.90;99.90
6756;DHT22;3415;51.148;7.014;2022-08-20T08:35:48;18.80;99.90
6756;DHT22;3415;51.148;7.014;2022-08-20T08:38:15;18.80;99.90
6756;DHT22;3415;51.148;7.014;2022-08-20T08:43:11;18.90;99.90
6756;DHT22;3415;51.148;7.014;2022-08-20T08:45:41;18.90;99.90
6756;DHT22;3415;51.148;7.014;2022-08-20T08:48:10;19.00;99.90
6756;DHT22;3415;51.148;7.014;2022-08-20T08:50:39;19.00;99.90
6756;DHT22;3415;51.148;7.014;2022-08-20T08:53:14;19.10;99.90
6756;DHT22;3415;51.148;7.014;2022-08-20T08:55:41;19.20;99.90
6756;DHT22;3415;51.148;7.014;2022-08-20T08:58:08;19.30;99.90
6756;DHT22;3415;51.148;7.014;2022-08-20T09:03:05;19.20;99.90
6756;DHT22;3415;51.148;7.014;2022-08-20T09:05:36;19.20;99.90
6756;DHT22;3415;51.148;7.014;2022-08-20T09:08:09;19.30;99.90
6756;DHT22;3415;51.148;7.014;2022-08-20T09:10:38;19.20;99.90
6756;DHT22;3415;51.148;7.014;2022-08-20T09:13:05;19.20;99.90
6756;DHT22;3415;51.148;7.014;2022-08-20T09:15:33;19.10;99.90
6756;DHT22;3415;51.148;7.014;2022-08-20T09:18:00;19.10;99.90
6756;DHT22;3415;51.148;7.014;2022-08-20T09:20:27;19.10;99.90
6756;DHT22;3415;51.148;7.014;2022-08-20T09:25:23;19.30;67.40
6756;DHT22;3415;51.148;7.014;2022-08-20T09:30:17;19.30;60.70
6756;DHT22;3415;51.148;7.014;2022-08-20T09:32:44;19.30;63.10
6756;DHT22;3415;51.148;7.014;2022-08-20T09:37:39;19.40;48.90
6756;DHT22;3415;51.148;7.014;2022-08-20T09:40:07;19.40;48.90
6756;DHT22;3415;51.148;7.014;2022-08-20T09:42:36;19.40;48.90
6756;DHT22;3415;51.148;7.014;2022-08-20T09:45:04;19.40;48.90
6756;DHT22;3415;51.148;7.014;2022-08-20T09:49:59;19.50;49.00
6756;DHT22;3415;51.148;7.014;2022-08-20T09:52:28;19.50;43.70
6756;DHT22;3415;51.148;7.014;2022-08-20T09:54:58;19.70;18.30
6756;DHT22;3415;51.148;7.014;2022-08-20T09:57:26;19.90;1.00
6756;DHT22;3415;51.148;7.014;2022-08-20T09:59:59;20.10;1.00
6756;DHT22;3415;51.148;7.014;2022-08-20T10:02:27;20.20;1.00
6756;DHT22;3415;51.148;7.014;2022-08-20T10:04:54;20.30;1.00
6756;DHT22;3415;51.148;7.014;2022-08-20T10:12:15;19.90;1.00
6756;DHT22;3415;51.148;7.014;2022-08-20T10:14:42;20.00;1.00
6756;DHT22;3415;51.148;7.014;2022-08-20T10:17:11;20.20;1.00
6756;DHT22;3415;51.148;7.014;2022-08-20T10:19:38;20.40;1.00
6756;DHT22;3415;51.148;7.014;2022-08-20T10:22:05;20.50;1.00
6756;DHT22;3415;51.148;7.014;2022-08-20T10:24:33;20.70;1.00
6756;DHT22;3415;51.148;7.014;2022-08-20T10:27:00;20.80;1.00
6756;DHT22;3415;51.148;7.014;2022-08-20T10:29:28;20.90;1.00
6756;DHT22;3415;51.148;7.014;2022-08-20T10:31:55;21.00;1.00
6756;DHT22;3415;51.148;7.014;2022-08-20T10:34:24;20.80;1.00
6756;DHT22;3415;51.148;7.014;2022-08-20T10:39:18;21.00;1.00
6756;DHT22;3415;51.148;7.014;2022-08-20T10:41:46;21.20;1.00
6756;DHT22;3415;51.148;7.014;2022-08-20T10:44:13;21.20;1.00
6756;DHT22;3415;51.148;7.014;2022-08-20T10:46:42;21.20;1.00
6756;DHT22;3415;51.148;7.014;2022-08-20T10:51:38;22.50;1.00
6756;DHT22;3415;51.148;7.014;2022-08-20T10:54:05;23.50;1.00
6756;DHT22;3415;51.148;7.014;2022-08-20T10:56:32;24.90;1.00
6756;DHT22;3415;51.148;7.014;2022-08-20T10:58:59;24.60;1.00
6756;DHT22;3415;51.148;7.014;2022-08-20T11:03:53;23.50;1.00
6756;DHT22;3415;51.148;7.014;2022-08-20T11:06:20;23.40;1.00
6756;DHT22;3415;51.148;7.014;2022-08-20T11:08:48;23.30;1.00
6756;DHT22;3415;51.148;7.014;2022-08-20T11:11:15;22.90;1.00
6756;DHT22;3415;51.148;7.014;2022-08-20T11:16:09;23.70;1.00
6756;DHT22;3415;51.148;7.014;2022-08-20T11:18:36;24.60;1.00
6756;DHT22;3415;51.148;7.014;2022-08-20T11:21:03;24.70;1.00
6756;DHT22;3415;51.148;7.014;2022-08-20T11:23:30;24.90;1.00
6756;DHT22;3415;51.148;7.014;2022-08-20T11:25:58;25.60;1.00
6756;DHT22;3415;51.148;7.014;2022-08-20T11:30:55;28.30;1.00
6756;DHT22;3415;51.148;7.014;2022-08-20T11:33:21;29.60;99.90
6756;DHT22;3415;51.148;7.014;2022-08-20T11:38:16;30.30;99.90
6756;DHT22;3415;51.148;7.014;2022-08-20T11:43:13;27.20;99.90
6756;DHT22;3415;51.148;7.014;2022-08-20T11:45:40;26.70;99.90
6756;DHT22;3415;51.148;7.014;2022-08-20T11:50:34;25.30;99.90
6756;DHT22;3415;51.148;7.014;2022-08-20T11:55:28;27.40;99.90
6756;DHT22;3415;51.148;7.014;2022-08-20T12:00:24;29.30;99.90
6756;DHT22;3415;51.148;7.014;2022-08-20T12:02:50;30.30;99.90
6756;DHT22;3415;51.148;7.014;2022-08-20T12:10:12;29.00;99.90
6756;DHT22;3415;51.148;7.014;2022-08-20T12:12:40;30.10;99.90
6756;DHT22;3415;51.148;7.014;2022-08-20T12:15:08;29.30;99.90
6756;DHT22;3415;51.148;7.014;2022-08-20T12:17:37;28.20;99.90
6756;DHT22;3415;51.148;7.014;2022-08-20T12:20:08;27.40;99.90
6756;DHT22;3415;51.148;7.014;2022-08-20T12:22:35;27.40;99.90
6756;DHT22;3415;51.148;7.014;2022-08-20T12:25:03;26.30;99.90
6756;DHT22;3415;51.148;7.014;2022-08-20T12:27:31;25.90;99.90
6756;DHT22;3415;51.148;7.014;2022-08-20T12:30:01;25.60;99.90
6756;DHT22;3415;51.148;7.014;2022-08-20T12:32:30;24.90;99.90
6756;DHT22;3415;51.148;7.014;2022-08-20T12:34:59;24.40;99.90
6756;DHT22;3415;51.148;7.014;2022-08-20T12:37:28;24.60;99.90
6756;DHT22;3415;51.148;7.014;2022-08-20T12:39:57;24.70;99.90
6756;DHT22;3415;51.148;7.014;2022-08-20T12:42:25;24.80;99.90
6756;DHT22;3415;51.148;7.014;2022-08-20T12:44:53;24.60;99.90
6756;DHT22;3415;51.148;7.014;2022-08-20T12:47:23;24.70;99.90
6756;DHT22;3415;51.148;7.014;2022-08-20T12:49:52;24.60;99.90
6756;DHT22;3415;51.148;7.014;2022-08-20T12:52:22;24.70;99.90
6756;DHT22;3415;51.148;7.014;2022-08-20T12:54:50;24.80;99.90
6756;DHT22;3415;51.148;7.014;2022-08-20T12:57:23;24.70;99.90
6756;DHT22;3415;51.148;7.014;2022-08-20T12:59:50;24.80;99.90
6756;DHT22;3415;51.148;7.014;2022-08-20T13:02:17;24.90;99.90
6756;DHT22;3415;51.148;7.014;2022-08-20T13:04:44;24.90;99.90
6756;DHT22;3415;51.148;7.014;2022-08-20T13:07:12;24.60;99.90
6756;DHT22;3415;51.148;7.014;2022-08-20T13:09:40;24.50;99.90
6756;DHT22;3415;51.148;7.014;2022-08-20T13:12:08;24.50;99.90
6756;DHT22;3415;51.148;7.014;2022-08-20T13:14:35;24.70;99.90
6756;DHT22;3415;51.148;7.014;2022-08-20T13:17:03;24.70;99.90
6756;DHT22;3415;51.148;7.014;2022-08-20T13:19:33;24.80;99.90
6756;DHT22;3415;51.148;7.014;2022-08-20T13:22:01;24.70;99.90
6756;DHT22;3415;51.148;7.014;2022-08-20T13:24:28;24.60;99.90
6756;DHT22;3415;51.148;7.014;2022-08-20T13:27:04;24.50;99.90
6756;DHT22;3415;51.148;7.014;2022-08-20T13:29:31;24.60;99.90
6756;DHT22;3415;51.148;7.014;2022-08-20T13:31:58;24.60;99.90
6756;DHT22;3415;51.148;7.014;2022-08-20T13:34:25;24.60;99.90
6756;DHT22;3415;51.148;7.014;2022-08-20T13:36:52;24.60;99.90
6756;DHT22;3415;51.148;7.014;2022-08-20T13:39:20;24.60;99.90
6756;DHT22;3415;51.148;7.014;2022-08-20T13:41:48;24.70;99.90
6756;DHT22;3415;51.148;7.014;2022-08-20T13:44:16;24.80;99.90
6756;DHT22;3415;51.148;7.014;2022-08-20T13:46:44;24.80;99.90
6756;DHT22;3415;51.148;7.014;2022-08-20T13:49:12;24.90;99.90
6756;DHT22;3415;51.148;7.014;2022-08-20T13:51:38;25.10;99.90
6756;DHT22;3415;51.148;7.014;2022-08-20T13:54:05;25.10;99.90
6756;DHT22;3415;51.148;7.014;2022-08-20T13:56:32;25.10;99.90
6756;DHT22;3415;51.148;7.014;2022-08-20T13:58:59;25.00;99.90
6756;DHT22;3415;51.148;7.014;2022-08-20T14:01:27;25.10;99.90
6756;DHT22;3415;51.148;7.014;2022-08-20T14:03:54;25.30;99.90
6756;DHT22;3415;51.148;7.014;2022-08-20T14:06:21;25.50;99.90
6756;DHT22;3415;51.148;7.014;2022-08-20T14:08:48;25.60;99.90
6756;DHT22;3415;51.148;7.014;2022-08-20T14:11:15;25.50;99.90
6756;DHT22;3415;51.148;7.014;2022-08-20T14:13:42;25.50;99.90
6756;DHT22;3415;51.148;7.014;2022-08-20T14:16:09;25.50;99.90
6756;DHT22;3415;51.148;7.014;2022-08-20T14:18:37;25.40;99.90
6756;DHT22;3415;51.148;7.014;2022-08-20T14:21:04;25.50;99.90
6756;DHT22;3415;51.148;7.014;2022-08-20T14:23:31;25.40;99.90
6756;DHT22;3415;51.148;7.014;2022-08-20T14:25:58;25.00;99.90
6756;DHT22;3415;51.148;7.014;2022-08-20T14:28:26;24.80;99.90
6756;DHT22;3415;51.148;7.014;2022-08-20T14:30:53;24.90;99.90
6756;DHT22;3415;51.148;7.014;2022-08-20T14:33:21;25.00;99.90
6756;DHT22;3415;51.148;7.014;2022-08-20T14:35:50;25.10;99.90
6756;DHT22;3415;51.148;7.014;2022-08-20T14:38:17;25.10;99.90
6756;DHT22;3415;51.148;7.014;2022-08-20T14:40:44;24.90;99.90
6756;DHT22;3415;51.148;7.014;2022-08-20T14:43:11;24.80;99.90
6756;DHT22;3415;51.148;7.014;2022-08-20T14:45:38;24.60;99.90
6756;DHT22;3415;51.148;7.014;2022-08-20T14:48:06;24.50;99.90
6756;DHT22;3415;51.148;7.014;2022-08-20T14:50:34;24.30;99.90
6756;DHT22;3415;51.148;7.014;2022-08-20T14:53:03;24.30;99.90
6756;DHT22;3415;51.148;7.014;2022-08-20T14:55:32;24.30;99.90
6756;DHT22;3415;51.148;7.014;2022-08-20T14:58:00;24.30;99.90
6756;DHT22;3415;51.148;7.014;2022-08-20T15:00:28;24.30;99.90
6756;DHT22;3415;51.148;7.014;2022-08-20T15:02:58;24.40;99.90
6756;DHT22;3415;51.148;7.014;2022-08-20T15:05:25;24.40;99.90
6756;DHT22;3415;51.148;7.014;2022-08-20T15:07:52;24.50;99.90
6756;DHT22;3415;51.148;7.014;2022-08-20T15:10:22;24.60;99.90
6756;DHT22;3415;51.148;7.014;2022-08-20T15:12:50;24.60;99.90
6756;DHT22;3415;51.148;7.014;2022-08-20T15:15:18;24.40;99.90
6756;DHT22;3415;51.148;7.014;2022-08-20T15:17:48;24.40;99.90
6756;DHT22;3415;51.148;7.014;2022-08-20T15:20:17;24.30;99.90
6756;DHT22;3415;51.148;7.014;2022-08-20T15:22:45;24.40;99.90
6756;DHT22;3415;51.148;7.014;2022-08-20T15:25:13;24.50;99.90
6756;DHT22;3415;51.148;7.014;2022-08-20T15:27:42;24.60;99.90
6756;DHT22;3415;51.148;7.014;2022-08-20T15:30:11;24.60;99.90
6756;DHT22;3415;51.148;7.014;2022-08-20T15:32:39;24.50;99.90
6756;DHT22;3415;51.148;7.014;2022-08-20T15:35:07;24.60;99.90
6756;DHT22;3415;51.148;7.014;2022-08-20T15:37:38;24.30;99.90
6756;DHT22;3415;51.148;7.014;2022-08-20T15:40:06;24.10;99.90
6756;DHT22;3415;51.148;7.014;2022-08-20T15:42:34;23.90;99.90
6756;DHT22;3415;51.148;7.014;2022-08-20T15:45:05;23.80;99.90
6756;DHT22;3415;51.148;7.014;2022-08-20T15:47:35;23.90;99.90
6756;DHT22;3415;51.148;7.014;2022-08-20T15:50:05;24.10;99.90
6756;DHT22;3415;51.148;7.014;2022-08-20T15:52:36;24.40;99.90
6756;DHT22;3415;51.148;7.014;2022-08-20T15:55:05;24.40;99.90
6756;DHT22;3415;51.148;7.014;2022-08-20T15:57:54;24.50;99.90
6756;DHT22;3415;51.148;7.014;2022-08-20T16:00:27;24.40;99.90
6756;DHT22;3415;51.148;7.014;2022-08-20T16:03:10;24.40;99.90
6756;DHT22;3415;51.148;7.014;2022-08-20T16:05:48;24.40;99.90
6756;DHT22;3415;51.148;7.014;2022-08-20T16:08:33;24.40;99.90
6756;DHT22;3415;51.148;7.014;2022-08-20T16:11:06;24.30;99.90
6756;DHT22;3415;51.148;7.014;2022-08-20T16:13:40;24.40;99.90
6756;DHT22;3415;51.148;7.014;2022-08-20T16:16:16;24.40;99.90
6756;DHT22;3415;51.148;7.014;2022-08-20T16:18:48;24.20;99.90
6756;DHT22;3415;51.148;7.014;2022-08-20T16:21:18;24.00;99.90
6756;DHT22;3415;51.148;7.014;2022-08-20T16:23:46;24.00;99.90
6756;DHT22;3415;51.148;7.014;2022-08-20T16:26:27;24.00;99.90
6756;DHT22;3415;51.148;7.014;2022-08-20T16:29:03;24.00;99.90
6756;DHT22;3415;51.148;7.014;2022-08-20T16:31:39;24.00;99.90
6756;DHT22;3415;51.148;7.014;2022-08-20T16:34:21;24.00;99.90
6756;DHT22;3415;51.148;7.014;2022-08-20T16:36:55;24.00;99.90
6756;DHT22;3415;51.148;7.014;2022-08-20T16:39:26;23.90;99.90
6756;DHT22;3415;51.148;7.014;2022-08-20T16:41:54;23.80;99.90
6756;DHT22;3415;51.148;7.014;2022-08-20T16:44:29;23.80;99.90
6756;DHT22;3415;51.148;7.014;2022-08-20T16:47:02;23.70;99.90
6756;DHT22;3415;51.148;7.014;2022-08-20T16:49:31;23.50;99.90
6756;DHT22;3415;51.148;7.014;2022-08-20T16:52:00;23.40;99.90
6756;DHT22;3415;51.148;7.014;2022-08-20T16:54:27;23.40;99.90
6756;DHT22;3415;51.148;7.014;2022-08-20T16:57:00;23.40;99.90
6756;DHT22;3415;51.148;7.014;2022-08-20T16:59:29;23.40;99.90
6756;DHT22;3415;51.148;7.014;2022-08-20T17:02:03;23.40;99.90
6756;DHT22;3415;51.148;7.014;2022-08-20T17:04:30;23.30;99.90
6756;DHT22;3415;51.148;7.014;2022-08-20T17:07:00;23.40;99.90
6756;DHT22;3415;51.148;7.014;2022-08-20T17:09:35;23.40;99.90
6756;DHT22;3415;51.148;7.014;2022-08-20T17:12:13;23.40;99.90
6756;DHT22;3415;51.148;7.014;2022-08-20T17:14:44;23.30;99.90
6756;DHT22;3415;51.148;7.014;2022-08-20T17:17:24;23.30;99.90
6756;DHT22;3415;51.148;7.014;2022-08-20T17:19:53;23.30;99.90
6756;DHT22;3415;51.148;7.014;2022-08-20T17:22:22;23.30;99.90
6756;DHT22;3415;51.148;7.014;2022-08-20T17:24:49;23.20;99.90
6756;DHT22;3415;51.148;7.014;2022-08-20T17:27:35;23.10;99.90
6756;DHT22;3415;51.148;7.014;2022-08-20T17:30:08;23.00;99.90
6756;DHT22;3415;51.148;7.014;2022-08-20T17:32:47;23.00;99.90
6756;DHT22;3415;51.148;7.014;2022-08-20T17:35:21;22.90;99.90
6756;DHT22;3415;51.148;7.014;2022-08-20T17:37:50;22.90;99.90
6756;DHT22;3415;51.148;7.014;2022-08-20T17:40:23;22.60;99.90
6756;DHT22;3415;51.148;7.014;2022-08-20T17:42:52;22.60;99.90
6756;DHT22;3415;51.148;7.014;2022-08-20T17:45:23;22.60;99.90
6756;DHT22;3415;51.148;7.014;2022-08-20T17:47:53;22.50;99.90
6756;DHT22;3415;51.148;7.014;2022-08-20T17:50:24;22.50;99.90
6756;DHT22;3415;51.148;7.014;2022-08-20T17:52:57;22.40;99.90
6756;DHT22;3415;51.148;7.014;2022-08-20T17:55:25;22.30;99.90
6756;DHT22;3415;51.148;7.014;2022-08-20T17:57:55;22.20;99.90
6756;DHT22;3415;51.148;7.014;2022-08-20T18:00:25;22.00;99.90
6756;DHT22;3415;51.148;7.014;2022-08-20T18:02:58;22.00;99.90
6756;DHT22;3415;51.148;7.014;2022-08-20T18:05:27;21.80;99.90
6756;DHT22;3415;51.148;7.014;2022-08-20T18:08:15;21.70;99.90
6756;DHT22;3415;51.148;7.014;2022-08-20T18:10:54;21.50;99.90
6756;DHT22;3415;51.148;7.014;2022-08-20T18:13:37;21.40;99.90
6756;DHT22;3415;51.148;7.014;2022-08-20T18:16:05;21.30;99.90
6756;DHT22;3415;51.148;7.014;2022-08-20T18:18:43;21.00;99.90
6756;DHT22;3415;51.148;7.014;2022-08-20T18:24:23;20.80;99.90
6756;DHT22;3415;51.148;7.014;2022-08-20T18:26:56;20.80;99.90
6756;DHT22;3415;51.148;7.014;2022-08-20T18:29:26;20.60;99.90
6756;DHT22;3415;51.148;7.014;2022-08-20T18:31:57;20.50;99.90
6756;DHT22;3415;51.148;7.014;2022-08-20T18:34:37;20.40;99.90
6756;DHT22;3415;51.148;7.014;2022-08-20T18:37:07;20.30;99.90
6756;DHT22;3415;51.148;7.014;2022-08-20T18:39:47;20.10;99.90
6756;DHT22;3415;51.148;7.014;2022-08-20T18:42:23;20.10;99.90
6756;DHT22;3415;51.148;7.014;2022-08-20T18:44:52;20.00;99.90
6756;DHT22;3415;51.148;7.014;2022-08-20T18:47:21;19.90;99.90
6756;DHT22;3415;51.148;7.014;2022-08-20T18:50:02;19.90;99.90
6756;DHT22;3415;51.148;7.014;2022-08-20T18:52:32;19.90;99.90
6756;DHT22;3415;51.148;7.014;2022-08-20T18:55:02;19.80;99.90
6756;DHT22;3415;51.148;7.014;2022-08-20T18:57:32;19.70;99.90
6756;DHT22;3415;51.148;7.014;2022-08-20T19:00:03;19.60;1.00
6756;DHT22;3415;51.148;7.014;2022-08-20T19:02:34;19.60;1.00
6756;DHT22;3415;51.148;7.014;2022-08-20T19:05:07;19.50;1.00
6756;DHT22;3415;51.148;7.014;2022-08-20T19:07:38;19.40;1.00
6756;DHT22;3415;51.148;7.014;2022-08-20T19:10:23;19.40;1.00
6756;DHT22;3415;51.148;7.014;2022-08-20T19:13:26;19.40;1.00
6756;DHT22;3415;51.148;7.014;2022-08-20T19:16:06;19.30;1.00
6756;DHT22;3415;51.148;7.014;2022-08-20T19:18:41;19.10;1.00
6756;DHT22;3415;51.148;7.014;2022-08-20T19:21:13;19.00;1.00
6756;DHT22;3415;51.148;7.014;2022-08-20T19:23:49;18.90;1.00
6756;DHT22;3415;51.148;7.014;2022-08-20T19:26:19;18.80;1.00
6756;DHT22;3415;51.148;7.014;2022-08-20T19:28:49;18.80;1.00
6756;DHT22;3415;51.148;7.014;2022-08-20T19:31:20;18.90;1.00
6756;DHT22;3415;51.148;7.014;2022-08-20T19:33:49;18.70;1.00
6756;DHT22;3415;51.148;7.014;2022-08-20T19:36:19;18.70;1.00
6756;DHT22;3415;51.148;7.014;2022-08-20T19:38:48;18.70;1.00
6756;DHT22;3415;51.148;7.014;2022-08-20T19:41:18;18.70;1.00
6756;DHT22;3415;51.148;7.014;2022-08-20T19:43:45;18.80;1.00
6756;DHT22;3415;51.148;7.014;2022-08-20T19:46:15;18.90;1.00
6756;DHT22;3415;51.148;7.014;2022-08-20T19:48:51;18.90;1.00
6756;DHT22;3415;51.148;7.014;2022-08-20T19:51:25;18.90;1.00
6756;DHT22;3415;51.148;7.014;2022-08-20T19:53:55;18.80;1.00
6756;DHT22;3415;51.148;7.014;2022-08-20T19:56:25;18.70;1.00
6756;DHT22;3415;51.148;7.014;2022-08-20T19:59:00;18.60;1.00
6756;DHT22;3415;51.148;7.014;2022-08-20T20:01:28;18.50;1.00
6756;DHT22;3415;51.148;7.014;2022-08-20T20:03:57;18.50;1.00
6756;DHT22;3415;51.148;7.014;2022-08-20T20:06:27;18.50;1.00
6756;DHT22;3415;51.148;7.014;2022-08-20T20:08:57;18.50;1.00
6756;DHT22;3415;51.148;7.014;2022-08-20T20:11:29;18.50;1.00
6756;DHT22;3415;51.148;7.014;2022-08-20T20:14:03;18.50;1.00
6756;DHT22;3415;51.148;7.014;2022-08-20T20:16:32;18.40;1.00
6756;DHT22;3415;51.148;7.014;2022-08-20T20:19:00;18.30;1.00
6756;DHT22;3415;51.148;7.014;2022-08-20T20:21:36;18.30;1.00
6756;DHT22;3415;51.148;7.014;2022-08-20T20:24:04;18.30;1.00
6756;DHT22;3415;51.148;7.014;2022-08-20T20:26:33;18.30;1.00
6756;DHT22;3415;51.148;7.014;2022-08-20T20:29:04;18.20;1.00
6756;DHT22;3415;51.148;7.014;2022-08-20T20:31:44;18.10;1.00
6756;DHT22;3415;51.148;7.014;2022-08-20T20:34:14;18.00;1.00
6756;DHT22;3415;51.148;7.014;2022-08-20T20:36:45;17.90;1.00
6756;DHT22;3415;51.148;7.014;2022-08-20T20:39:25;17.80;1.00
6756;DHT22;3415;51.148;7.014;2022-08-20T20:41:53;17.70;1.00
6756;DHT22;3415;51.148;7.014;2022-08-20T20:44:23;17.60;1.00
6756;DHT22;3415;51.148;7.014;2022-08-20T20:46:54;17.50;1.00
6756;DHT22;3415;51.148;7.014;2022-08-20T20:49:23;17.40;1.00
6756;DHT22;3415;51.148;7.014;2022-08-20T20:51:58;17.30;1.00
6756;DHT22;3415;51.148;7.014;2022-08-20T20:54:29;17.30;1.00
6756;DHT22;3415;51.148;7.014;2022-08-20T20:57:07;17.20;1.00
6756;DHT22;3415;51.148;7.014;2022-08-20T20:59:35;17.10;1.00
6756;DHT22;3415;51.148;7.014;2022-08-20T21:02:02;17.20;1.00
6756;DHT22;3415;51.148;7.014;2022-08-20T21:04:30;17.10;1.00
6756;DHT22;3415;51.148;7.014;2022-08-20T21:07:04;17.20;1.00
6756;DHT22;3415;51.148;7.014;2022-08-20T21:09:33;17.20;1.00
6756;DHT22;3415;51.148;7.014;2022-08-20T21:12:00;17.20;1.00
6756;DHT22;3415;51.148;7.014;2022-08-20T21:14:27;17.30;1.00
6756;DHT22;3415;51.148;7.014;2022-08-20T21:16:55;17.40;1.00
6756;DHT22;3415;51.148;7.014;2022-08-20T21:19:24;17.40;1.00
6756;DHT22;3415;51.148;7.014;2022-08-20T21:21:51;17.30;1.00
6756;DHT22;3415;51.148;7.014;2022-08-20T21:24:19;17.10;1.00
6756;DHT22;3415;51.148;7.014;2022-08-20T21:26:47;17.10;1.00
6756;DHT22;3415;51.148;7.014;2022-08-20T21:29:16;17.00;1.00
6756;DHT22;3415;51.148;7.014;2022-08-20T21:31:46;16.90;1.00
6756;DHT22;3415;51.148;7.014;2022-08-20T21:34:14;16.90;1.00
6756;DHT22;3415;51.148;7.014;2022-08-20T21:36:42;16.80;1.00
